Cheetham Hill, United Kingdom
Current Conditions -  °F | °C
As of 2:50 AM on Saturday 20 Dec 2014 (Local Time) from EGCC Reporting Station
Light Rain Light Rain  
Wind Chill: 34°   Ceiling: 2300
Heat Index: 43°   Visibility: 6mi
Dew Point: 39°   Wind: 20mph
Humidity: 87%   Direction: 270°W
Pressure: 30.09"   Gusts: NA
Location:  53.5°N, 2.24°W
Report Text: EGCC 200250Z AUTO 27017KT 9999 -RA FEW017/// BKN023/// BKN029/// //////TCU 06/04 Q1019
Loading
Personal Weather Stations






























Interactive Weather Map New forecast layout! Learn more

10-Day Weather Forecast

Advertisements
Track Severe Weather on mobile